Time;durP1;ratioP1;P1;durP2;ratioP2;P2;SDS_P1;SDS_P2;PMS_P1;PMS_P2;Temp;Humidity;BMP_temperature;BMP_pressure;BME280_temperature;BME280_humidity;BME280_pressure;Samples;Min_cycle;Max_cycle;Signal;HPM_P1;HPM_P2
2022/03/31 00:00:32;;;;;;;25.27;23.98;;;11.10;68.00;;;;;;5020947;28;20041;-90
2022/03/31 00:02:59;;;;;;;25.73;24.33;;;11.00;67.90;;;;;;5007218;28;20026;-88
2022/03/31 00:05:25;;;;;;;25.90;24.38;;;11.00;68.00;;;;;;5008638;28;20038;-88
2022/03/31 00:07:52;;;;;;;27.33;25.30;;;11.00;67.90;;;;;;5007561;28;20033;-89
2022/03/31 00:10:26;;;;;;;26.60;24.80;;;11.00;68.00;;;;;;5015343;28;20053;-90
2022/03/31 00:12:53;;;;;;;24.85;23.60;;;11.00;67.90;;;;;;5011711;28;20045;-90
2022/03/31 00:15:19;;;;;;;23.63;22.52;;;11.00;67.90;;;;;;5021802;28;20026;-88
2022/03/31 00:17:45;;;;;;;24.88;23.67;;;11.00;67.90;;;;;;5011794;28;20568;-89
2022/03/31 00:20:11;;;;;;;25.67;24.38;;;11.00;67.90;;;;;;5022481;28;20030;-90
2022/03/31 00:22:39;;;;;;;26.10;24.45;;;11.00;68.00;;;;;;5006185;28;20076;-89
2022/03/31 00:25:06;;;;;;;25.27;23.98;;;10.90;67.90;;;;;;5013799;28;20034;-90
2022/03/31 00:27:32;;;;;;;25.88;24.42;;;10.90;67.90;;;;;;5010359;28;20041;-89
2022/03/31 00:29:58;;;;;;;25.55;24.02;;;10.90;68.00;;;;;;5007124;28;20434;-90
2022/03/31 00:32:24;;;;;;;26.88;25.58;;;10.90;68.00;;;;;;5021427;28;20050;-89
2022/03/31 00:34:50;;;;;;;27.33;25.85;;;10.80;68.00;;;;;;5022318;28;20360;-89
2022/03/31 00:37:16;;;;;;;28.10;26.70;;;10.80;68.00;;;;;;5008298;28;20053;-89
2022/03/31 00:39:43;;;;;;;26.67;25.20;;;10.70;68.10;;;;;;5012750;28;20049;-90
2022/03/31 00:42:10;;;;;;;28.73;27.10;;;10.60;68.20;;;;;;5010340;28;20042;-89
2022/03/31 00:44:36;;;;;;;29.35;27.95;;;10.60;68.30;;;;;;5008101;28;20462;-89
2022/03/31 00:47:03;;;;;;;28.48;26.80;;;10.50;68.30;;;;;;5004868;28;20479;-89
2022/03/31 00:49:29;;;;;;;28.83;27.23;;;10.50;68.40;;;;;;5023922;28;20057;-88
2022/03/31 00:51:56;;;;;;;25.85;24.63;;;10.50;68.40;;;;;;5009348;28;20045;-91
2022/03/31 00:54:23;;;;;;;27.15;25.85;;;10.50;69.10;;;;;;5007046;28;20403;-89
2022/03/31 00:56:50;;;;;;;28.60;27.20;;;10.40;68.30;;;;;;5010384;28;20030;-90
2022/03/31 00:59:17;;;;;;;24.70;23.58;;;10.40;68.30;;;;;;5005462;28;20053;-89
2022/03/31 01:01:45;;;;;;;24.60;23.25;;;10.40;68.30;;;;;;5005664;28;20335;-89
2022/03/31 01:04:12;;;;;;;26.38;25.10;;;10.40;68.30;;;;;;5009016;28;20045;-88
2022/03/31 01:06:38;;;;;;;26.13;24.77;;;10.40;68.30;;;;;;5040673;28;20514;-88
2022/03/31 01:09:04;;;;;;;27.38;26.00;;;10.30;68.20;;;;;;5008111;28;20053;-90
2022/03/31 01:11:30;;;;;;;26.83;25.58;;;10.30;68.30;;;;;;5026209;28;20041;-90
2022/03/31 01:13:57;;;;;;;28.75;27.10;;;10.30;68.20;;;;;;5005530;28;20034;-90
2022/03/31 01:16:23;;;;;;;26.63;25.08;;;10.30;68.20;;;;;;4993562;28;20038;-89
2022/03/31 01:18:52;;;;;;;26.23;24.90;;;10.30;68.20;;;;;;4994617;28;20042;-90
2022/03/31 01:21:18;;;;;;;24.80;23.55;;;10.30;68.20;;;;;;5022620;28;20030;-89
2022/03/31 01:23:45;;;;;;;25.33;24.13;;;10.30;68.20;;;;;;5009811;28;20025;-89
2022/03/31 01:26:11;;;;;;;25.58;24.25;;;10.30;68.20;;;;;;5023893;28;20022;-88
2022/03/31 01:28:40;;;;;;;27.42;25.17;;;10.30;68.20;;;;;;5025842;28;20490;-89
2022/03/31 01:31:06;;;;;;;27.20;25.70;;;10.30;68.20;;;;;;5012146;28;20029;-90
2022/03/31 01:33:33;;;;;;;26.00;24.77;;;10.30;68.20;;;;;;5013492;28;20041;-88
2022/03/31 01:35:59;;;;;;;27.50;26.20;;;10.30;68.10;;;;;;5013028;28;20026;-88
2022/03/31 01:38:25;;;;;;;27.85;26.55;;;10.30;68.10;;;;;;5010034;28;20029;-88
2022/03/31 01:40:51;;;;;;;25.50;24.30;;;10.30;68.10;;;;;;5025401;28;20034;-88
2022/03/31 01:43:19;;;;;;;26.63;24.92;;;10.30;68.10;;;;;;5027176;28;20562;-87
2022/03/31 01:45:45;;;;;;;25.30;24.00;;;10.30;68.10;;;;;;5010878;28;20038;-90
2022/03/31 01:48:12;;;;;;;27.83;25.95;;;10.30;68.10;;;;;;5010827;28;20041;-90
2022/03/31 01:50:38;;;;;;;26.63;25.33;;;10.30;68.00;;;;;;5024929;28;20061;-90
2022/03/31 01:53:04;;;;;;;29.33;27.92;;;10.30;68.00;;;;;;5012234;28;20046;-90
2022/03/31 01:55:30;;;;;;;27.00;25.70;;;10.30;68.00;;;;;;5010155;28;20057;-89
2022/03/31 01:57:56;;;;;;;26.58;25.25;;;10.30;68.00;;;;;;5010020;28;20041;-89
2022/03/31 02:00:22;;;;;;;26.40;24.95;;;10.30;68.00;;;;;;5010347;28;20057;-89
2022/03/31 02:02:48;;;;;;;27.33;26.02;;;10.30;68.00;;;;;;5009651;28;20034;-89
2022/03/31 02:05:15;;;;;;;28.05;26.55;;;10.30;68.10;;;;;;5024943;28;20036;-88
2022/03/31 02:07:41;;;;;;;25.58;24.17;;;10.20;68.00;;;;;;5026707;28;20050;-89
2022/03/31 02:10:11;;;;;;;24.73;23.40;;;10.30;68.10;;;;;;5032161;28;20029;-88
2022/03/31 02:12:38;;;;;;;24.63;23.35;;;10.20;68.10;;;;;;5011144;28;20045;-90
2022/03/31 02:15:05;;;;;;;25.40;24.08;;;10.20;68.10;;;;;;5013170;28;20025;-91
2022/03/31 02:17:31;;;;;;;24.70;23.30;;;10.20;68.10;;;;;;5024682;28;20045;-89
2022/03/31 02:19:57;;;;;;;23.85;22.63;;;10.20;68.00;;;;;;5009159;28;20376;-88
2022/03/31 02:22:23;;;;;;;23.40;22.25;;;10.20;68.00;;;;;;5010522;28;20034;-88
2022/03/31 02:24:49;;;;;;;24.25;22.92;;;10.20;68.00;;;;;;5025584;28;20048;-90
2022/03/31 02:27:15;;;;;;;24.50;23.30;;;10.20;68.10;;;;;;5011909;28;20032;-88
2022/03/31 02:29:41;;;;;;;25.13;23.83;;;10.20;68.10;;;;;;5010247;28;20041;-89
2022/03/31 02:32:08;;;;;;;25.13;23.83;;;10.20;68.10;;;;;;5024191;28;20045;-88
2022/03/31 02:34:34;;;;;;;25.60;24.33;;;10.10;68.10;;;;;;5009994;28;20049;-88
2022/03/31 02:37:02;;;;;;;26.27;24.58;;;10.10;68.20;;;;;;5011557;28;20029;-88
2022/03/31 02:39:30;;;;;;;23.98;22.88;;;10.10;68.10;;;;;;5024277;28;20030;-91
2022/03/31 02:42:03;;;;;;;24.98;23.65;;;10.10;68.10;;;;;;5012994;28;20034;-88
2022/03/31 02:44:29;;;;;;;28.77;27.08;;;10.10;68.20;;;;;;5023622;28;20046;-89
2022/03/31 02:46:55;;;;;;;24.73;23.48;;;10.10;68.10;;;;;;5025558;28;20030;-89
2022/03/31 02:49:21;;;;;;;26.08;24.55;;;10.10;68.10;;;;;;5026587;28;20098;-89
2022/03/31 02:51:47;;;;;;;24.08;22.98;;;10.00;68.20;;;;;;4999442;28;20522;-91
2022/03/31 02:56:58;;;;;;;25.00;23.45;;;10.00;68.30;;;;;;5023298;28;20056;-89
2022/03/31 02:59:24;;;;;;;25.52;23.95;;;10.00;68.30;;;;;;5008945;28;20029;-89
2022/03/31 03:01:50;;;;;;;25.58;23.92;;;9.90;68.30;;;;;;5023630;28;20085;-88
2022/03/31 03:04:17;;;;;;;24.30;23.10;;;9.90;68.40;;;;;;5013102;28;20036;-87
2022/03/31 03:06:43;;;;;;;24.55;23.10;;;9.90;68.50;;;;;;5013104;28;20041;-88
2022/03/31 03:09:09;;;;;;;25.00;23.25;;;9.90;68.50;;;;;;5009951;28;20021;-90
2022/03/31 03:11:35;;;;;;;24.90;23.55;;;9.90;68.50;;;;;;5027687;28;20037;-89
2022/03/31 03:14:01;;;;;;;24.23;22.98;;;9.80;68.40;;;;;;5008567;28;20403;-89
2022/03/31 03:16:27;;;;;;;24.80;23.60;;;9.90;68.50;;;;;;4993379;28;20045;-90
2022/03/31 03:18:53;;;;;;;24.42;23.30;;;9.80;68.50;;;;;;5025336;28;20037;-88
2022/03/31 03:21:20;;;;;;;23.48;22.38;;;9.80;68.50;;;;;;5008585;28;20455;-89
2022/03/31 03:23:46;;;;;;;22.75;21.50;;;9.80;68.50;;;;;;5023810;28;20402;-88
2022/03/31 03:26:12;;;;;;;24.77;23.58;;;9.80;68.60;;;;;;5024923;28;20021;-88
2022/03/31 03:28:38;;;;;;;25.45;23.70;;;9.80;68.50;;;;;;5007123;28;20045;-90
2022/03/31 03:31:05;;;;;;;25.75;24.35;;;9.80;68.50;;;;;;5010843;28;20113;-89
2022/03/31 03:33:32;;;;;;;24.77;23.58;;;9.80;68.50;;;;;;5024712;28;20038;-89
2022/03/31 03:36:01;;;;;;;24.50;22.98;;;9.80;68.50;;;;;;5010633;28;20049;-90
2022/03/31 03:38:27;;;;;;;24.90;23.55;;;9.70;69.20;;;;;;5009380;28;20041;-90
2022/03/31 03:40:53;;;;;;;25.52;24.23;;;9.80;68.50;;;;;;5022824;28;20030;-89
2022/03/31 03:43:20;;;;;;;23.25;21.85;;;9.70;68.50;;;;;;4995335;28;20549;-89
2022/03/31 03:45:46;;;;;;;24.90;23.20;;;9.70;68.50;;;;;;5008811;28;20399;-88
2022/03/31 03:48:12;;;;;;;25.17;23.80;;;9.70;68.50;;;;;;5007887;28;20041;-89
2022/03/31 03:50:38;;;;;;;26.45;24.95;;;9.70;68.60;;;;;;5022516;28;20050;-87
2022/03/31 03:53:05;;;;;;;24.42;23.23;;;9.70;68.60;;;;;;4992268;28;20046;-87
2022/03/31 03:55:34;;;;;;;24.67;23.48;;;9.60;68.50;;;;;;5023753;28;20474;-88
2022/03/31 03:58:00;;;;;;;25.00;23.50;;;9.60;68.50;;;;;;5013272;28;20033;-88
2022/03/31 04:00:27;;;;;;;23.80;22.42;;;9.60;68.60;;;;;;5022047;28;20034;-88
2022/03/31 04:02:53;;;;;;;24.85;23.25;;;9.60;68.60;;;;;;5022642;28;20022;-89
2022/03/31 04:05:20;;;;;;;23.60;22.42;;;9.60;68.50;;;;;;5003934;28;20046;-88
2022/03/31 04:07:47;;;;;;;23.60;22.40;;;9.60;68.50;;;;;;5006624;28;20157;-89
2022/03/31 04:10:13;;;;;;;24.17;23.02;;;9.50;68.60;;;;;;5013413;28;20144;-88
2022/03/31 04:12:39;;;;;;;24.42;22.73;;;9.50;68.60;;;;;;5007871;28;20041;-86
2022/03/31 04:15:06;;;;;;;23.60;22.40;;;9.50;68.60;;;;;;5021993;28;20030;-89
2022/03/31 04:17:32;;;;;;;24.25;22.80;;;9.50;68.70;;;;;;5022281;28;20479;-87
2022/03/31 04:19:58;;;;;;;21.88;20.83;;;9.40;68.60;;;;;;5007447;28;20411;-87
2022/03/31 04:22:25;;;;;;;22.80;21.70;;;9.40;68.60;;;;;;5024251;28;20076;-87
2022/03/31 04:24:51;;;;;;;22.85;21.75;;;9.40;68.70;;;;;;5023592;28;20028;-86
2022/03/31 04:27:17;;;;;;;22.95;21.75;;;9.40;68.70;;;;;;5010352;28;20042;-87
2022/03/31 04:29:43;;;;;;;24.75;23.13;;;9.30;68.70;;;;;;5022171;28;20026;-87
2022/03/31 04:32:10;;;;;;;23.85;22.65;;;9.30;68.80;;;;;;5004021;28;20552;-87
2022/03/31 04:34:36;;;;;;;22.83;21.73;;;9.30;68.80;;;;;;5006113;28;20054;-86
2022/03/31 04:37:02;;;;;;;22.10;21.10;;;9.30;68.80;;;;;;5009589;28;20359;-86
2022/03/31 04:39:28;;;;;;;23.33;22.17;;;9.30;68.80;;;;;;4997106;28;20042;-87
2022/03/31 04:41:54;;;;;;;23.60;22.15;;;9.20;68.70;;;;;;5022232;28;20371;-87
2022/03/31 04:44:21;;;;;;;21.92;20.73;;;9.20;68.70;;;;;;5009213;28;20485;-87
2022/03/31 04:46:47;;;;;;;23.42;22.23;;;9.20;68.80;;;;;;5021956;28;20054;-88
2022/03/31 04:49:13;;;;;;;22.55;21.45;;;9.20;68.80;;;;;;5008795;28;20042;-87
2022/03/31 04:51:39;;;;;;;23.13;21.92;;;9.20;68.80;;;;;;4995297;28;20056;-88
2022/03/31 04:54:06;;;;;;;21.98;20.98;;;9.10;68.70;;;;;;5021931;28;20478;-86
2022/03/31 04:56:32;;;;;;;23.05;21.70;;;9.10;68.80;;;;;;4995100;28;20081;-87
2022/03/31 04:58:58;;;;;;;24.70;23.38;;;9.10;68.80;;;;;;5005653;28;20033;-88
2022/03/31 05:01:24;;;;;;;25.08;23.60;;;9.10;68.90;;;;;;5013093;28;20509;-86
2022/03/31 05:03:51;;;;;;;23.25;22.00;;;9.10;68.90;;;;;;5011803;28;20041;-87
2022/03/31 05:06:17;;;;;;;24.60;23.33;;;9.10;68.90;;;;;;5013277;28;20026;-86
2022/03/31 05:08:44;;;;;;;23.25;22.13;;;9.00;68.80;;;;;;5011159;28;20502;-87
2022/03/31 05:11:10;;;;;;;23.10;22.00;;;9.00;68.90;;;;;;5015899;28;20038;-88
2022/03/31 05:13:36;;;;;;;21.63;20.52;;;9.00;68.90;;;;;;5009861;28;20046;-88
2022/03/31 05:16:02;;;;;;;21.98;20.77;;;9.00;68.90;;;;;;5027894;28;20398;-87
2022/03/31 05:18:28;;;;;;;24.00;22.58;;;9.00;68.90;;;;;;5013284;28;20569;-86
2022/03/31 05:20:54;;;;;;;24.75;23.15;;;9.00;68.80;;;;;;5025114;28;20030;-87
2022/03/31 05:23:21;;;;;;;22.58;21.38;;;9.00;68.90;;;;;;4996629;28;20380;-87
2022/03/31 05:25:48;;;;;;;23.42;22.13;;;9.00;68.90;;;;;;5008792;28;20038;-87
2022/03/31 05:28:15;;;;;;;22.45;21.25;;;9.00;68.90;;;;;;5013142;28;20045;-87
2022/03/31 05:30:42;;;;;;;21.65;20.65;;;9.00;68.80;;;;;;5008723;28;20053;-87
2022/03/31 05:33:08;;;;;;;22.02;20.90;;;9.00;68.90;;;;;;5016805;28;20387;-88
2022/03/31 05:35:35;;;;;;;21.60;20.50;;;8.90;68.80;;;;;;5009852;28;20034;-87
2022/03/31 05:38:01;;;;;;;23.35;21.80;;;9.00;68.80;;;;;;5024894;28;20031;-87
2022/03/31 05:40:27;;;;;;;23.42;22.10;;;9.00;69.70;;;;;;5012310;28;20034;-87
2022/03/31 05:42:55;;;;;;;21.30;20.30;;;8.90;68.80;;;;;;5014816;28;20026;-87
2022/03/31 05:45:21;;;;;;;22.35;21.00;;;8.90;68.90;;;;;;5024429;28;20037;-86
2022/03/31 05:47:47;;;;;;;22.38;21.23;;;8.90;68.90;;;;;;5025119;28;20485;-86
2022/03/31 05:50:13;;;;;;;22.33;21.23;;;8.90;68.90;;;;;;5009323;28;20053;-87
2022/03/31 05:52:42;;;;;;;23.63;22.00;;;8.80;68.80;;;;;;5025035;28;20022;-86
2022/03/31 05:55:15;;;;;;;21.77;20.75;;;8.80;68.90;;;;;;5003425;28;20053;-88
2022/03/31 05:57:42;;;;;;;22.23;20.80;;;8.80;68.90;;;;;;4997752;28;20038;-87
2022/03/31 06:00:10;;;;;;;22.60;21.50;;;8.80;68.80;;;;;;4996588;28;20030;-86
2022/03/31 06:02:37;;;;;;;22.27;21.10;;;8.80;68.80;;;;;;4999726;28;20045;-87
2022/03/31 06:05:03;;;;;;;24.58;22.52;;;8.80;68.80;;;;;;5024368;28;20034;-87
2022/03/31 06:07:29;;;;;;;22.45;21.25;;;8.80;68.80;;;;;;5011183;28;20034;-89
2022/03/31 06:09:55;;;;;;;22.73;21.63;;;8.80;68.80;;;;;;5013355;28;20025;-87
2022/03/31 06:12:21;;;;;;;23.77;22.58;;;8.80;69.60;;;;;;5010628;28;20022;-88
2022/03/31 06:14:47;;;;;;;23.30;22.08;;;8.80;69.60;;;;;;5009279;28;20037;-88
2022/03/31 06:17:14;;;;;;;23.70;22.50;;;8.80;68.80;;;;;;5008373;28;20395;-87
2022/03/31 06:19:40;;;;;;;22.30;21.23;;;8.80;68.80;;;;;;5008724;28;20041;-88
2022/03/31 06:22:06;;;;;;;23.13;21.83;;;8.90;68.90;;;;;;5027701;28;20025;-88
2022/03/31 06:24:32;;;;;;;22.55;21.45;;;8.90;68.80;;;;;;5008842;28;20030;-88
2022/03/31 06:27:00;;;;;;;23.02;21.80;;;8.90;68.80;;;;;;5010032;28;20053;-88
2022/03/31 06:29:27;;;;;;;24.02;22.20;;;9.00;68.80;;;;;;5010141;28;20041;-87
2022/03/31 06:31:53;;;;;;;23.05;21.85;;;9.00;68.60;;;;;;5023503;28;20038;-87
2022/03/31 06:34:20;;;;;;;21.92;20.73;;;9.00;68.50;;;;;;5009869;28;20054;-88
2022/03/31 06:36:46;;;;;;;21.92;20.85;;;9.10;68.50;;;;;;5013226;28;20040;-87
2022/03/31 06:39:13;;;;;;;24.13;22.38;;;9.10;68.40;;;;;;4997653;28;20037;-89
2022/03/31 06:41:42;;;;;;;21.85;20.85;;;9.20;68.40;;;;;;5024057;28;20057;-87
2022/03/31 06:44:09;;;;;;;21.88;20.77;;;9.30;68.40;;;;;;5007662;28;20037;-88
2022/03/31 06:46:35;;;;;;;23.30;22.15;;;9.30;68.20;;;;;;5024436;28;20042;-88
2022/03/31 06:49:02;;;;;;;21.45;20.45;;;9.40;68.20;;;;;;5026159;28;20050;-86
2022/03/31 06:51:28;;;;;;;22.85;21.75;;;9.40;68.10;;;;;;5011548;28;20037;-87
2022/03/31 06:53:57;;;;;;;22.40;21.33;;;9.40;68.10;;;;;;5011285;28;20030;-87
2022/03/31 06:56:27;;;;;;;24.35;22.27;;;9.50;68.10;;;;;;5010048;28;20057;-86
2022/03/31 06:58:56;;;;;;;22.65;21.55;;;9.50;68.10;;;;;;5025195;28;20439;-86
2022/03/31 07:01:23;;;;;;;22.45;21.40;;;9.50;68.10;;;;;;5011250;28;20037;-86
2022/03/31 07:03:49;;;;;;;22.40;21.40;;;9.50;68.10;;;;;;5012340;28;20497;-87
2022/03/31 07:06:16;;;;;;;24.55;23.33;;;9.60;68.10;;;;;;5023685;28;20033;-86
2022/03/31 07:08:42;;;;;;;23.27;22.08;;;9.70;68.10;;;;;;5011323;28;20041;-88
2022/03/31 07:11:11;;;;;;;22.92;21.80;;;9.70;68.10;;;;;;5027324;28;20072;-87
2022/03/31 07:13:38;;;;;;;24.27;23.08;;;9.70;68.10;;;;;;5007934;28;20050;-87
2022/03/31 07:16:04;;;;;;;22.80;21.70;;;9.70;68.10;;;;;;4997238;28;20026;-87
2022/03/31 07:18:30;;;;;;;25.35;23.70;;;9.70;68.20;;;;;;5010983;28;20042;-87
2022/03/31 07:20:59;;;;;;;23.45;22.25;;;9.70;68.30;;;;;;5024751;28;20030;-86
2022/03/31 07:23:26;;;;;;;24.67;22.95;;;9.70;68.30;;;;;;5009584;28;20046;-87
2022/03/31 07:25:53;;;;;;;23.63;22.33;;;9.70;68.40;;;;;;5006630;28;20030;-88
2022/03/31 07:28:20;;;;;;;23.20;22.02;;;9.70;68.40;;;;;;5025356;28;20029;-88
2022/03/31 07:30:47;;;;;;;25.17;23.88;;;9.70;68.40;;;;;;5008281;28;20026;-87
2022/03/31 07:33:13;;;;;;;23.75;22.50;;;9.70;68.40;;;;;;5022945;28;20026;-88
2022/03/31 07:35:41;;;;;;;23.77;22.58;;;9.70;68.40;;;;;;5011143;28;20486;-87
2022/03/31 07:38:08;;;;;;;23.83;22.63;;;9.70;68.40;;;;;;5006746;28;20026;-87
2022/03/31 07:40:38;;;;;;;22.80;21.70;;;9.80;68.40;;;;;;5007360;28;20061;-88
2022/03/31 07:43:05;;;;;;;23.83;22.73;;;9.80;68.40;;;;;;5013954;28;20022;-87
2022/03/31 07:45:34;;;;;;;24.45;23.10;;;9.90;68.40;;;;;;5008629;28;20042;-86
2022/03/31 07:48:01;;;;;;;24.33;23.05;;;9.90;68.30;;;;;;5022265;28;20034;-86
2022/03/31 07:50:29;;;;;;;24.00;22.48;;;10.00;68.30;;;;;;5022233;28;20042;-87
2022/03/31 07:52:55;;;;;;;26.75;25.25;;;10.00;68.20;;;;;;5007473;28;20034;-88
2022/03/31 07:55:21;;;;;;;25.15;23.30;;;10.10;68.20;;;;;;5024848;28;20042;-87
2022/03/31 07:57:48;;;;;;;23.77;22.63;;;10.10;68.20;;;;;;5023914;28;20030;-86
2022/03/31 08:00:15;;;;;;;24.25;23.05;;;10.20;68.10;;;;;;5021778;28;20021;-87
2022/03/31 08:02:42;;;;;;;23.95;22.75;;;10.20;68.10;;;;;;5022360;28;20022;-87
2022/03/31 08:05:09;;;;;;;24.98;23.77;;;10.20;68.10;;;;;;5022467;28;20026;-86
2022/03/31 08:07:36;;;;;;;25.08;23.67;;;10.20;68.10;;;;;;5023635;28;20015;-87
2022/03/31 08:10:06;;;;;;;26.40;24.67;;;10.30;68.20;;;;;;5016251;28;20036;-87
2022/03/31 08:12:33;;;;;;;24.60;23.38;;;10.30;68.10;;;;;;5009242;28;20030;-86
2022/03/31 08:15:00;;;;;;;26.88;25.30;;;10.40;68.10;;;;;;5021781;28;20048;-87
2022/03/31 08:17:27;;;;;;;25.98;24.48;;;10.50;67.90;;;;;;5007866;28;20044;-86
2022/03/31 08:19:53;;;;;;;1506.55;756.25;;;10.60;67.80;;;;;;5006370;28;20053;-87
2022/03/31 08:22:19;;;;;;;1999.90;999.90;;;10.70;67.60;;;;;;5024605;28;20391;-86
2022/03/31 08:24:45;;;;;;;1999.90;999.90;;;10.70;67.60;;;;;;5008560;28;20474;-87
2022/03/31 08:27:11;;;;;;;1999.90;999.90;;;10.70;67.60;;;;;;5022134;28;20475;-87
2022/03/31 08:29:39;;;;;;;1999.90;999.90;;;10.70;67.60;;;;;;5008404;28;20045;-87
2022/03/31 08:32:08;;;;;;;1999.90;999.90;;;10.80;67.70;;;;;;5005681;28;20030;-87
2022/03/31 08:34:34;;;;;;;1999.90;999.90;;;10.80;67.70;;;;;;5008904;28;20046;-87
2022/03/31 08:37:00;;;;;;;1999.90;999.90;;;10.90;67.60;;;;;;5029060;28;20049;-87
2022/03/31 08:39:26;;;;;;;1999.90;999.90;;;10.90;67.50;;;;;;5026165;28;20030;-87
2022/03/31 08:41:52;;;;;;;1999.90;999.90;;;10.90;67.60;;;;;;5025982;28;20478;-86
2022/03/31 08:44:21;;;;;;;1999.90;999.90;;;10.90;67.60;;;;;;5010658;28;20030;-86
2022/03/31 08:46:49;;;;;;;1999.90;999.90;;;10.80;67.70;;;;;;5025790;28;20046;-88
2022/03/31 08:49:15;;;;;;;1999.90;999.90;;;10.80;67.70;;;;;;5015837;28;20061;-86
2022/03/31 08:51:44;;;;;;;1999.90;999.90;;;10.70;67.90;;;;;;5026737;28;20034;-86
2022/03/31 08:54:11;;;;;;;1999.90;999.90;;;10.60;68.00;;;;;;4999833;28;20054;-86
2022/03/31 08:56:37;;;;;;;1999.90;999.90;;;10.60;68.00;;;;;;5025710;28;20458;-87
2022/03/31 08:59:03;;;;;;;1999.90;999.90;;;10.50;68.10;;;;;;5008626;28;20050;-87
2022/03/31 09:01:31;;;;;;;1999.90;999.90;;;10.50;68.20;;;;;;5027366;28;20038;-87
2022/03/31 09:03:57;;;;;;;1999.90;999.90;;;10.50;68.20;;;;;;5015073;28;20390;-88
2022/03/31 09:06:28;;;;;;;1999.90;999.90;;;10.50;68.20;;;;;;5010711;28;20044;-93
2022/03/31 09:08:59;;;;;;;1999.90;999.90;;;10.50;68.20;;;;;;5014993;28;20026;-88
2022/03/31 09:11:33;;;;;;;1999.90;999.90;;;10.60;68.20;;;;;;4995798;28;20034;-90
2022/03/31 09:14:00;;;;;;;1999.90;999.90;;;10.70;68.00;;;;;;5006888;28;20357;-88
2022/03/31 09:16:31;;;;;;;1999.90;999.90;;;10.80;67.70;;;;;;4999564;28;20046;-90
2022/03/31 09:19:01;;;;;;;;;;;10.90;67.70;;;;;;5030288;28;20022;-89
2022/03/31 09:21:27;;;;;;;1999.90;999.90;;;10.90;67.50;;;;;;4995587;28;20397;-91
2022/03/31 09:23:53;;;;;;;1999.90;999.90;;;11.00;67.40;;;;;;4990921;28;20034;-90
2022/03/31 09:26:20;;;;;;;1999.90;999.90;;;11.10;67.20;;;;;;5005195;28;20509;-86
2022/03/31 09:28:46;;;;;;;1999.90;999.90;;;11.20;67.00;;;;;;5023807;28;20033;-87
2022/03/31 09:31:13;;;;;;;1999.90;999.90;;;11.20;66.90;;;;;;5023991;28;20033;-90
2022/03/31 09:33:48;;;;;;;1999.90;999.90;;;11.30;66.80;;;;;;5033842;28;20041;-81
2022/03/31 09:36:18;;;;;;;1999.90;999.90;;;11.30;66.80;;;;;;5023421;28;20041;-87
2022/03/31 09:38:55;;;;;;;1999.90;999.90;;;11.30;66.70;;;;;;5011556;28;20030;-89
2022/03/31 09:41:24;;;;;;;1999.90;999.90;;;11.30;66.60;;;;;;4994487;28;20038;-88
2022/03/31 09:43:51;;;;;;;1999.90;999.90;;;11.40;66.60;;;;;;5025541;28;20045;-90
2022/03/31 09:46:22;;;;;;;1999.90;999.90;;;11.50;66.40;;;;;;4996306;28;20038;-90
2022/03/31 09:48:52;;;;;;;1999.90;999.90;;;11.50;66.20;;;;;;5024432;28;20050;-90
2022/03/31 09:51:19;;;;;;;1999.90;999.90;;;11.60;66.00;;;;;;5040131;28;20041;-92
2022/03/31 09:53:47;;;;;;;1999.90;999.90;;;11.60;65.90;;;;;;5010247;28;20033;-90
2022/03/31 09:56:18;;;;;;;1999.90;999.90;;;11.70;65.80;;;;;;5011688;28;20046;-89
2022/03/31 09:58:45;;;;;;;1999.90;999.90;;;11.80;65.70;;;;;;5007267;28;20034;-88
2022/03/31 10:01:11;;;;;;;1999.90;999.90;;;11.90;65.60;;;;;;5015018;28;20767;-88
2022/03/31 10:03:38;;;;;;;1999.90;999.90;;;11.90;65.30;;;;;;5023978;28;20038;-85
2022/03/31 10:06:04;;;;;;;1999.90;999.90;;;11.90;65.10;;;;;;4995218;28;20053;-84
2022/03/31 10:08:32;;;;;;;1999.90;999.90;;;12.00;65.00;;;;;;5006804;28;20037;-87
2022/03/31 10:10:59;;;;;;;1999.90;999.90;;;12.10;64.80;;;;;;5014659;28;20033;-84
2022/03/31 10:13:26;;;;;;;1999.90;999.90;;;12.30;64.60;;;;;;4995124;28;20433;-84
2022/03/31 10:15:58;;;;;;;1999.90;999.90;;;12.40;64.20;;;;;;5012237;28;20050;-86
2022/03/31 10:18:25;;;;;;;1999.90;999.90;;;12.50;64.10;;;;;;5023080;28;20032;-88
2022/03/31 10:24:48;;;;;;;1999.90;999.90;;;12.60;63.90;;;;;;4924173;29;20526;-90
2022/03/31 10:27:29;;;;;;;1999.90;999.90;;;12.90;63.10;;;;;;4926227;29;20431;-92
2022/03/31 10:30:07;;;;;;;1999.90;999.90;;;13.10;62.70;;;;;;4930450;29;20046;-92
2022/03/31 10:32:33;;;;;;;1999.90;999.90;;;13.30;62.00;;;;;;4910399;29;20059;-90
2022/03/31 10:35:00;;;;;;;1999.90;999.90;;;13.50;61.20;;;;;;4924432;29;20062;-92
2022/03/31 10:37:34;;;;;;;1999.90;999.90;;;13.60;61.00;;;;;;4909890;29;20054;-91
2022/03/31 10:40:01;;;;;;;1999.90;999.90;;;13.70;60.90;;;;;;4922741;29;20220;-89
2022/03/31 10:42:27;;;;;;;1999.90;999.90;;;13.70;60.70;;;;;;4900568;29;20504;-93
2022/03/31 10:45:07;;;;;;;1999.90;999.90;;;13.70;60.70;;;;;;4929123;29;20043;-85
2022/03/31 10:47:34;;;;;;;1999.90;999.90;;;13.60;60.70;;;;;;4916905;29;20040;-89
2022/03/31 10:50:01;;;;;;;1999.90;999.90;;;13.50;60.90;;;;;;4911772;29;20065;-86
2022/03/31 10:52:28;;;;;;;1999.90;999.90;;;13.40;60.90;;;;;;4929677;29;20512;-89
2022/03/31 10:55:09;;;;;;;1999.90;999.90;;;13.30;61.10;;;;;;4929050;29;20582;-90
2022/03/31 10:57:43;;;;;;;1999.90;999.90;;;13.20;61.20;;;;;;4928802;29;20031;-87
2022/03/31 11:00:11;;;;;;;1999.90;999.90;;;13.10;60.80;;;;;;4923699;28;20401;-87
2022/03/31 11:02:42;;;;;;;1999.90;999.90;;;13.10;60.90;;;;;;5021731;28;20383;-87
2022/03/31 11:05:09;;;;;;;1999.90;999.90;;;13.00;60.90;;;;;;4998204;28;20391;-88
2022/03/31 11:07:35;;;;;;;1999.90;999.90;;;13.00;61.20;;;;;;5008343;28;20467;-87
2022/03/31 11:10:02;;;;;;;1999.90;999.90;;;13.00;60.70;;;;;;5015902;28;20029;-87
2022/03/31 11:12:29;;;;;;;1999.90;999.90;;;13.00;60.60;;;;;;5009509;28;20026;-87
2022/03/31 11:15:00;;;;;;;1999.90;999.90;;;13.00;60.60;;;;;;5005340;28;20070;-88
2022/03/31 11:17:27;;;;;;;1999.90;999.90;;;13.00;60.40;;;;;;5022286;28;20045;-88
2022/03/31 11:19:55;;;;;;;1999.90;999.90;;;13.00;59.90;;;;;;5008883;28;20038;-87
2022/03/31 11:22:26;;;;;;;1999.90;999.90;;;12.90;59.80;;;;;;4994383;28;20042;-87
2022/03/31 11:24:54;;;;;;;1999.90;999.90;;;12.90;59.90;;;;;;5010247;28;20044;-87
2022/03/31 11:27:37;;;;;;;1999.90;999.90;;;12.90;59.80;;;;;;4994194;28;20030;-88
2022/03/31 11:30:23;;;;;;;1999.90;999.90;;;12.90;59.90;;;;;;5008965;28;20049;-87
2022/03/31 11:32:55;;;;;;;1999.90;999.90;;;12.90;59.90;;;;;;5022113;28;20097;-89
2022/03/31 11:35:23;;;;;;;1999.90;999.90;;;12.80;59.70;;;;;;5007793;28;20056;-89
2022/03/31 11:38:00;;;;;;;1999.90;999.90;;;12.80;59.80;;;;;;5021241;28;20029;-88
2022/03/31 11:40:28;;;;;;;1999.90;999.90;;;12.70;59.80;;;;;;5010228;28;20372;-87
2022/03/31 11:42:55;;;;;;;1999.90;999.90;;;12.60;59.90;;;;;;5013738;28;20030;-88
2022/03/31 11:45:46;;;;;;;1999.90;999.90;;;12.50;59.90;;;;;;5007412;28;20382;-88
2022/03/31 11:48:14;;;;;;;1999.90;999.90;;;12.40;59.80;;;;;;5007415;28;20036;-89
2022/03/31 11:51:03;;;;;;;1999.90;999.90;;;12.20;59.90;;;;;;5010152;28;20032;-88
2022/03/31 11:53:31;;;;;;;1999.90;999.90;;;12.10;60.00;;;;;;5008210;28;20041;-87
2022/03/31 11:56:11;;;;;;;1999.90;999.90;;;12.10;59.90;;;;;;4976676;28;20050;-87
2022/03/31 11:58:48;;;;;;;1999.90;999.90;;;12.00;59.90;;;;;;5007172;28;20030;-88
2022/03/31 12:01:22;;;;;;;1999.90;999.90;;;11.90;60.00;;;;;;5001241;28;20042;-88
2022/03/31 12:03:48;;;;;;;1999.90;999.90;;;11.80;59.90;;;;;;5024151;28;20029;-87
2022/03/31 12:06:15;;;;;;;1999.90;999.90;;;11.70;60.00;;;;;;5008120;28;20036;-88
2022/03/31 12:08:41;;;;;;;1999.90;999.90;;;11.60;60.10;;;;;;5021285;28;20438;-87
2022/03/31 12:11:07;;;;;;;1999.90;999.90;;;11.60;60.30;;;;;;5010842;28;20034;-86
2022/03/31 12:13:45;;;;;;;1999.90;999.90;;;11.50;60.60;;;;;;5007729;28;20045;-85
2022/03/31 12:16:11;;;;;;;1999.90;999.90;;;11.40;61.60;;;;;;5017107;28;20044;-83
2022/03/31 12:18:40;;;;;;;1999.90;999.90;;;11.30;61.40;;;;;;5006387;28;20388;-83
2022/03/31 12:21:07;;;;;;;1999.90;999.90;;;11.10;61.80;;;;;;5020688;28;20410;-83
2022/03/31 12:23:40;;;;;;;1999.90;999.90;;;10.90;62.20;;;;;;4992288;28;20040;-83
2022/03/31 12:26:13;;;;;;;1999.90;999.90;;;10.80;62.50;;;;;;5005140;28;20443;-83
2022/03/31 12:28:43;;;;;;;1999.90;999.90;;;10.70;62.70;;;;;;4989296;28;20564;-84